createdAt,value
2018-07-20T00:01:22.335Z,193.00
2018-07-20T00:03:53.424Z,193.30
2018-07-20T00:06:24.454Z,194.52
2018-07-20T00:08:55.626Z,191.20
2018-07-20T00:11:26.796Z,194.95
2018-07-20T00:13:57.939Z,193.52
2018-07-20T00:16:28.888Z,192.98
2018-07-20T00:18:59.915Z,196.07
2018-07-20T00:21:31.061Z,191.60
2018-07-20T00:24:02.189Z,190.03
2018-07-20T00:26:33.526Z,191.25
2018-07-20T00:29:04.571Z,188.47
2018-07-20T00:31:35.469Z,190.68
2018-07-20T00:34:06.662Z,189.00
2018-07-20T00:36:37.615Z,190.50
2018-07-20T00:39:10.817Z,192.20
2018-07-20T00:41:42.004Z,188.40
2018-07-20T00:44:13.060Z,192.98
2018-07-20T00:46:44.021Z,188.93
2018-07-20T00:49:15.167Z,192.43
2018-07-20T00:51:46.573Z,192.65
2018-07-20T00:54:17.643Z,197.65
2018-07-20T00:56:48.732Z,185.70
2018-07-20T00:59:19.978Z,187.75
2018-07-20T01:01:51.155Z,186.25
2018-07-20T01:04:22.195Z,195.18
2018-07-20T01:06:53.353Z,189.87
2018-07-20T01:09:24.430Z,189.67
2018-07-20T01:11:55.588Z,190.90
2018-07-20T01:14:26.943Z,191.57
2018-07-20T01:16:57.948Z,190.82
2018-07-20T01:19:28.916Z,191.22
2018-07-20T01:22:00.115Z,186.57
2018-07-20T01:24:32.103Z,186.03
2018-07-20T01:27:03.504Z,189.35
2018-07-20T01:29:34.556Z,189.82
2018-07-20T01:32:06.094Z,185.90
2018-07-20T01:34:37.237Z,185.88
2018-07-20T01:37:08.457Z,185.03
2018-07-20T01:39:39.761Z,185.05
2018-07-20T01:42:10.784Z,187.80
2018-07-20T01:44:42.613Z,183.40
2018-07-20T01:47:13.763Z,182.75
2018-07-20T01:49:44.748Z,182.78
2018-07-20T01:52:16.583Z,183.65
2018-07-20T01:54:47.700Z,187.00
2018-07-20T01:57:18.879Z,184.05
2018-07-20T01:59:49.955Z,186.15
2018-07-20T02:02:21.052Z,186.95
2018-07-20T02:04:52.179Z,183.57
2018-07-20T02:07:23.242Z,187.50
2018-07-20T02:09:54.656Z,182.75
2018-07-20T02:12:25.792Z,183.93
2018-07-20T02:14:58.574Z,181.37
2018-07-20T02:17:30.051Z,186.62
2018-07-20T02:20:01.157Z,184.63
2018-07-20T02:22:32.267Z,183.72
2018-07-20T02:25:03.666Z,184.67
2018-07-20T02:27:34.703Z,182.60
2018-07-20T02:30:06.650Z,184.95
2018-07-20T02:32:37.804Z,182.72
2018-07-20T02:35:08.873Z,184.35
2018-07-20T02:37:39.882Z,185.73
2018-07-20T02:40:13.028Z,185.90
2018-07-20T02:42:44.690Z,183.27
2018-07-20T02:45:16.240Z,186.40
2018-07-20T02:47:47.295Z,184.32
2018-07-20T02:50:18.668Z,183.95
2018-07-20T02:52:49.831Z,181.07
2018-07-20T02:55:25.038Z,183.93
2018-07-20T02:57:56.316Z,180.27
2018-07-20T03:00:27.447Z,181.52
2018-07-20T03:02:58.608Z,183.75
2018-07-20T03:05:31.768Z,195.97
2018-07-20T03:08:04.463Z,206.90
2018-07-20T03:10:35.820Z,187.07
2018-07-20T03:13:08.641Z,180.85
2018-07-20T03:15:39.666Z,181.05
2018-07-20T03:18:12.336Z,180.30
2018-07-20T03:20:43.437Z,178.55
2018-07-20T03:23:23.380Z,178.05
2018-07-20T03:25:54.615Z,182.88
2018-07-20T03:28:25.882Z,179.32
2018-07-20T03:30:56.911Z,179.55
2018-07-20T03:33:28.080Z,179.53
2018-07-20T03:35:59.699Z,185.03
2018-07-20T03:38:31.119Z,182.93
2018-07-20T03:41:03.432Z,177.82
2018-07-20T03:43:34.868Z,180.12
2018-07-20T03:46:05.766Z,179.82
2018-07-20T03:48:37.081Z,178.82
2018-07-20T03:51:08.330Z,179.20
2018-07-20T03:53:39.278Z,178.27
2018-07-20T03:56:10.218Z,181.63
2018-07-20T03:58:41.366Z,183.57
2018-07-20T04:01:13.184Z,178.10
2018-07-20T04:03:44.549Z,178.10
2018-07-20T04:06:15.632Z,179.20
2018-07-20T04:08:46.714Z,177.05
2018-07-20T04:11:17.936Z,181.52
2018-07-20T04:13:49.015Z,178.70
2018-07-20T04:16:20.067Z,183.00
2018-07-20T04:18:51.443Z,179.40
2018-07-20T04:21:22.445Z,179.18
2018-07-20T04:23:53.552Z,185.88
2018-07-20T04:26:24.591Z,180.00
2018-07-20T04:28:55.664Z,181.37
2018-07-20T04:31:26.713Z,182.93
2018-07-20T04:33:57.779Z,183.95
2018-07-20T04:36:29.040Z,178.45
2018-07-20T04:39:00.135Z,182.68
2018-07-20T04:41:33.594Z,184.30
2018-07-20T04:44:04.736Z,182.88
2018-07-20T04:46:36.378Z,182.55
2018-07-20T04:49:07.854Z,186.15
2018-07-20T04:51:38.938Z,183.60
2018-07-20T04:54:11.098Z,179.12
2018-07-20T04:56:42.328Z,182.65
2018-07-20T04:59:13.343Z,181.10
2018-07-20T05:01:44.240Z,184.45
2018-07-20T05:04:15.699Z,183.07
2018-07-20T05:06:47.443Z,183.40
2018-07-20T05:09:18.589Z,186.52
2018-07-20T05:11:50.001Z,188.68
2018-07-20T05:14:20.909Z,189.30
2018-07-20T05:16:52.533Z,187.92
2018-07-20T05:19:23.671Z,189.43
2018-07-20T05:21:54.845Z,184.40
2018-07-20T05:24:25.876Z,182.95
2018-07-20T05:26:57.159Z,187.32
2018-07-20T05:29:28.281Z,190.70
2018-07-20T05:32:03.348Z,191.15
2018-07-20T05:34:34.416Z,193.75
2018-07-20T05:37:05.928Z,199.32
2018-07-20T05:39:37.730Z,185.45
2018-07-20T05:42:09.248Z,186.88
2018-07-20T05:44:40.669Z,191.40
2018-07-20T05:47:11.675Z,194.45
2018-07-20T05:49:42.579Z,187.47
2018-07-20T05:52:13.640Z,194.60
2018-07-20T05:54:46.695Z,203.10
2018-07-20T05:57:17.853Z,194.43
2018-07-20T05:59:49.245Z,190.50
2018-07-20T06:02:21.060Z,194.13
2018-07-20T06:04:52.377Z,196.90
2018-07-20T06:07:23.689Z,194.22
2018-07-20T06:09:54.723Z,192.13
2018-07-20T06:12:25.746Z,192.15
2018-07-20T06:15:00.484Z,197.90
2018-07-20T06:17:34.902Z,202.15
2018-07-20T06:20:10.097Z,193.62
2018-07-20T06:22:42.173Z,188.42
2018-07-20T06:25:13.409Z,194.20
2018-07-20T06:27:44.467Z,187.57
2018-07-20T06:30:15.641Z,192.57
2018-07-20T06:32:46.693Z,188.82
2018-07-20T06:35:17.876Z,198.30
2018-07-20T06:37:49.535Z,196.53
2018-07-20T06:40:22.867Z,193.82
2018-07-20T06:42:54.434Z,196.43
2018-07-20T06:45:25.688Z,197.35
2018-07-20T06:47:56.686Z,200.68
2018-07-20T06:50:28.373Z,200.28
2018-07-20T06:52:59.499Z,205.00
2018-07-20T06:55:31.393Z,200.20
2018-07-20T06:58:03.369Z,193.32
2018-07-20T07:00:36.166Z,197.35
2018-07-20T07:03:09.031Z,191.12
2018-07-20T07:05:39.991Z,195.85
2018-07-20T07:08:12.447Z,189.10
2018-07-20T07:10:43.550Z,194.47
2018-07-20T07:13:16.401Z,196.70
2018-07-20T07:15:48.175Z,193.22
2018-07-20T07:18:19.599Z,194.32
2018-07-20T07:20:50.678Z,195.10
2018-07-20T07:23:21.648Z,198.53
2018-07-20T07:25:52.904Z,202.95
2018-07-20T07:28:24.236Z,195.65
2018-07-20T07:30:55.253Z,194.10
2018-07-20T07:33:28.135Z,197.90
2018-07-20T07:36:02.251Z,197.45
2018-07-20T07:38:36.474Z,195.35
2018-07-20T07:41:09.128Z,195.03
2018-07-20T07:43:41.236Z,202.93
2018-07-20T07:46:12.187Z,200.90
2018-07-20T07:51:40.100Z,202.03
2018-07-20T07:54:12.112Z,197.80
2018-07-20T07:56:44.179Z,197.78
2018-07-20T07:59:15.347Z,195.30
2018-07-20T08:01:46.354Z,192.90
2018-07-20T08:04:17.631Z,200.53
2018-07-20T08:06:48.553Z,196.65
2018-07-20T08:09:19.753Z,198.00
2018-07-20T08:11:51.117Z,196.12
2018-07-20T08:14:22.419Z,199.60
2018-07-20T08:16:53.411Z,202.47
2018-07-20T08:19:24.384Z,203.15
2018-07-20T08:21:55.299Z,206.43
2018-07-20T08:24:26.351Z,206.50
2018-07-20T08:26:57.344Z,200.55
2018-07-20T08:29:28.554Z,203.10
2018-07-20T08:32:02.844Z,204.18
2018-07-20T08:34:34.078Z,212.27
2018-07-20T08:37:06.531Z,195.80
2018-07-20T08:39:37.625Z,206.97
2018-07-20T08:42:09.092Z,206.07
2018-07-20T08:44:41.465Z,208.07
2018-07-20T08:47:15.855Z,200.50
2018-07-20T08:49:47.035Z,206.93
2018-07-20T08:52:18.909Z,207.32
2018-07-20T08:54:49.887Z,206.55
2018-07-20T08:57:21.450Z,207.12
2018-07-20T18:53:18.967Z,235.55
2018-07-20T18:55:52.560Z,245.15
2018-07-20T18:58:23.562Z,232.92
2018-07-20T19:00:54.729Z,240.87
2018-07-20T19:03:25.890Z,252.93
2018-07-20T19:05:57.114Z,258.00
2018-07-20T19:08:28.131Z,239.78
2018-07-20T19:10:59.822Z,254.55
2018-07-20T19:13:31.038Z,250.07
2018-07-20T19:16:03.991Z,243.70
2018-07-20T19:18:35.250Z,238.45
2018-07-20T19:21:06.278Z,265.45
2018-07-20T19:23:37.469Z,271.62
2018-07-20T19:26:08.745Z,289.50
2018-07-20T19:28:40.653Z,282.32
2018-07-20T19:31:12.215Z,259.87
2018-07-20T19:33:43.342Z,266.80
2018-07-20T19:36:14.774Z,293.77
2018-07-20T19:38:46.871Z,270.48
2018-07-20T19:41:18.662Z,268.05
2018-07-20T19:43:50.043Z,257.52
2018-07-20T19:46:21.905Z,240.92
2018-07-20T19:48:53.163Z,268.80
2018-07-20T19:51:24.467Z,288.42
2018-07-20T19:53:56.016Z,247.17
2018-07-20T19:56:27.144Z,267.00
2018-07-20T19:58:58.576Z,292.50
2018-07-20T20:01:30.808Z,283.50
2018-07-20T20:04:03.345Z,277.50
2018-07-20T20:06:34.747Z,264.72
2018-07-20T20:09:09.700Z,258.90
2018-07-20T20:11:42.311Z,269.68
2018-07-20T20:14:13.756Z,268.30
2018-07-20T20:16:45.406Z,274.02
2018-07-20T20:19:17.344Z,281.87
2018-07-20T20:21:57.354Z,287.52
2018-07-20T20:24:29.243Z,268.05
2018-07-20T20:27:00.674Z,275.98
2018-07-20T20:29:31.953Z,277.75
2018-07-20T20:32:04.465Z,276.10
2018-07-20T20:34:35.708Z,285.07
2018-07-20T20:37:07.267Z,287.68
2018-07-20T20:39:38.989Z,285.55
2018-07-20T20:42:10.068Z,286.40
2018-07-20T20:44:42.300Z,271.77
2018-07-20T20:47:13.291Z,242.80
2018-07-20T20:49:44.721Z,266.75
2018-07-20T20:52:16.484Z,254.23
2018-07-20T20:54:47.694Z,255.72
2018-07-20T20:57:18.885Z,255.35
2018-07-20T20:59:50.271Z,259.02
2018-07-20T21:02:21.724Z,268.57
2018-07-20T21:04:54.164Z,257.23
2018-07-20T21:07:25.367Z,265.25
2018-07-20T21:09:56.771Z,269.73
2018-07-20T21:12:27.881Z,265.77
2018-07-20T21:15:00.095Z,253.60
2018-07-20T21:17:31.583Z,253.27
2018-07-20T21:20:03.034Z,257.37
2018-07-20T21:22:34.268Z,260.52
2018-07-20T21:25:06.657Z,256.82
2018-07-20T21:27:37.666Z,253.62
2018-07-20T21:30:08.861Z,247.78
2018-07-20T21:32:39.980Z,257.60
2018-07-20T21:35:10.985Z,248.38
2018-07-20T21:37:42.357Z,248.95
2018-07-20T21:40:14.567Z,246.72
2018-07-20T21:42:46.756Z,274.75
2018-07-20T21:45:18.428Z,261.12
2018-07-20T21:47:49.439Z,246.32
2018-07-20T21:50:22.714Z,240.03
2018-07-20T21:52:54.167Z,250.00
2018-07-20T21:55:26.844Z,240.12
2018-07-20T21:57:57.883Z,242.93
2018-07-20T22:00:31.723Z,248.35
2018-07-20T22:03:04.735Z,252.32
2018-07-20T22:05:38.760Z,246.55
2018-07-20T22:08:12.603Z,253.10
2018-07-20T22:10:44.391Z,250.32
2018-07-20T22:13:15.736Z,248.40
2018-07-20T22:15:47.480Z,235.43
2018-07-20T22:18:18.367Z,234.07
2018-07-20T22:20:49.487Z,244.45
2018-07-20T22:23:21.210Z,276.27
2018-07-20T22:25:52.690Z,261.25
2018-07-20T22:28:24.697Z,244.72
2018-07-20T22:30:56.082Z,248.18
2018-07-20T22:33:27.611Z,264.32
2018-07-20T22:35:59.039Z,245.10
2018-07-20T22:38:30.565Z,248.50
2018-07-20T22:41:02.185Z,267.27
2018-07-20T22:43:33.797Z,252.65
2018-07-20T22:46:04.968Z,249.00
2018-07-20T22:48:36.388Z,244.87
2018-07-20T22:51:08.099Z,250.75
2018-07-20T22:53:39.164Z,251.62
2018-07-20T22:56:10.332Z,244.10
2018-07-20T22:58:41.387Z,242.53
2018-07-20T23:01:13.183Z,239.55
2018-07-20T23:03:44.530Z,243.63
2018-07-20T23:06:16.618Z,240.20
2018-07-20T23:08:47.964Z,234.52
2018-07-20T23:11:19.114Z,239.40
2018-07-20T23:13:50.440Z,224.27
2018-07-20T23:16:21.639Z,243.30
2018-07-20T23:18:52.882Z,241.38
2018-07-20T23:21:25.178Z,239.30
2018-07-20T23:23:56.368Z,231.97
2018-07-20T23:26:28.223Z,237.10
2018-07-20T23:28:59.186Z,230.15
2018-07-20T23:31:30.278Z,229.55
2018-07-20T23:34:01.380Z,228.40
2018-07-20T23:36:32.415Z,235.53
2018-07-20T23:39:05.595Z,232.10
2018-07-20T23:41:36.801Z,243.27
2018-07-20T23:44:09.030Z,239.88
2018-07-20T23:46:39.995Z,221.45
2018-07-20T23:49:11.547Z,230.62
2018-07-20T23:51:42.657Z,236.68
2018-07-20T23:54:14.368Z,242.28
2018-07-20T23:56:45.384Z,244.82
2018-07-20T23:59:16.870Z,235.50
